GHB - Wetterstation

--- Lilienthal-Gleiter-Unterfranken e.V. --- (Impressum)
-> Windverlauf / Grafik
-> Barometerverlauf / Grafik
-> Wetter Links
-> WS GHB auf Windy



Bitte Uhrzeit beachten ob Daten aktuell sind!

Anzeige der letzten 100 Messwerte (~8 Stunden)
Datum Zeit Wind Richtung Richtung Böen Temperatur Feuchte Luftdruck
21.02.2024 03:15:04 10.52 km/h 229.1 ° SW 13.32 km/h 5.5 °C 76.5 % 1024.22 hPa
21.02.2024 03:10:22 7.24 km/h 250.2 ° W-SW 10.44 km/h 5.5 °C 76 % 1024.42 hPa
21.02.2024 03:05:39 7.62 km/h 233.1 ° SW 12.6 km/h 5.5 °C 76.5 % 1024.52 hPa
21.02.2024 03:00:57 11.34 km/h 231.9 ° SW 15.48 km/h 5.5 °C 76.5 % 1024.62 hPa
21.02.2024 02:56:15 14.94 km/h 232.5 ° SW 20.52 km/h 5.4 °C 76.5 % 1024.42 hPa
21.02.2024 02:51:33 10.22 km/h 226 ° SW 15.48 km/h 5.4 °C 76.5 % 1024.52 hPa
21.02.2024 02:46:50 9.54 km/h 225.6 ° SW 14.76 km/h 5.4 °C 75.5 % 1024.62 hPa
21.02.2024 02:42:08 9.19 km/h 205.8 ° S-SW 13.32 km/h 5.5 °C 76 % 1024.52 hPa
21.02.2024 02:37:26 10.35 km/h 207.9 ° S-SW 13.68 km/h 5.5 °C 76.5 % 1024.52 hPa
21.02.2024 02:32:43 8.03 km/h 220.5 ° SW 11.88 km/h 5.5 °C 76.5 % 1024.72 hPa
21.02.2024 02:28:01 12.13 km/h 228.5 ° SW 20.52 km/h 5.5 °C 76.5 % 1024.62 hPa
21.02.2024 02:23:19 10.94 km/h 239.4 ° W-SW 17.64 km/h 5.4 °C 76 % 1024.62 hPa
21.02.2024 02:18:36 12.31 km/h 225.1 ° SW 16.92 km/h 5.5 °C 76 % 1024.92 hPa
21.02.2024 02:13:54 11.78 km/h 238 ° W-SW 15.12 km/h 5.5 °C 76 % 1024.92 hPa
21.02.2024 02:09:12 14.88 km/h 238.6 ° W-SW 18.72 km/h 5.7 °C 76.5 % 1025.12 hPa
21.02.2024 02:04:30 14.46 km/h 247.6 ° W-SW 17.28 km/h 5.7 °C 76 % 1025.22 hPa
21.02.2024 01:59:47 11.97 km/h 243.9 ° W-SW 17.64 km/h 5.7 °C 76.5 % 1025.12 hPa
21.02.2024 01:55:05 13.96 km/h 244.7 ° W-SW 18 km/h 5.7 °C 76.5 % 1025.22 hPa
21.02.2024 01:50:23 9.33 km/h 239.2 ° W-SW 14.4 km/h 5.7 °C 76.5 % 1025.32 hPa
21.02.2024 01:45:41 8.31 km/h 252.3 ° W-SW 14.04 km/h 5.7 °C 77 % 1025.32 hPa
21.02.2024 01:40:58 11.18 km/h 262.8 ° W 14.76 km/h 5.7 °C 76.5 % 1025.42 hPa
21.02.2024 01:36:16 11 km/h 250.8 ° W-SW 16.92 km/h 5.7 °C 76.5 % 1025.42 hPa
21.02.2024 01:31:34 9.54 km/h 242.8 ° W-SW 15.12 km/h 5.7 °C 76.5 % 1025.42 hPa
21.02.2024 01:26:51 9.51 km/h 254.6 ° W-SW 15.84 km/h 5.7 °C 76.5 % 1025.52 hPa
21.02.2024 01:22:09 10.55 km/h 255.6 ° W-SW 13.32 km/h 5.7 °C 76 % 1025.72 hPa
21.02.2024 01:17:27 10.08 km/h 255.8 ° W-SW 15.48 km/h 5.7 °C 77.5 % 1025.82 hPa
21.02.2024 01:12:44 8.97 km/h 245.8 ° W-SW 16.2 km/h 5.8 °C 76.5 % 1025.72 hPa
21.02.2024 01:08:02 14.62 km/h 260.5 ° W 17.64 km/h 5.8 °C 76.5 % 1025.82 hPa
21.02.2024 01:03:19 11.38 km/h 256.1 ° W-SW 15.84 km/h 5.8 °C 76.5 % 1025.92 hPa
21.02.2024 00:58:37 11.47 km/h 244.5 ° W-SW 18.72 km/h 5.8 °C 76.5 % 1026.02 hPa
21.02.2024 00:53:55 12.88 km/h 242.8 ° W-SW 18.72 km/h 5.7 °C 77 % 1025.92 hPa
21.02.2024 00:49:12 10.16 km/h 255.6 ° W-SW 16.2 km/h 5.7 °C 76.5 % 1025.82 hPa
21.02.2024 00:44:30 8.47 km/h 232.9 ° SW 16.2 km/h 5.7 °C 76.5 % 1026.02 hPa
21.02.2024 00:39:48 11.61 km/h 246.4 ° W-SW 16.56 km/h 5.7 °C 76.5 % 1026.12 hPa
21.02.2024 00:35:05 9.46 km/h 239.7 ° W-SW 12.96 km/h 5.7 °C 76 % 1026.12 hPa
21.02.2024 00:30:23 11.64 km/h 250.8 ° W-SW 19.08 km/h 5.7 °C 76.5 % 1026.12 hPa
21.02.2024 00:25:41 11.29 km/h 242.6 ° W-SW 18.72 km/h 5.7 °C 76.5 % 1026.12 hPa
21.02.2024 00:20:58 6.76 km/h 249.8 ° W-SW 10.08 km/h 5.6 °C 76.5 % 1026.12 hPa
21.02.2024 00:16:16 4.68 km/h 199.7 ° S-SW 10.8 km/h 5.6 °C 76.5 % 1026.22 hPa
21.02.2024 00:11:33 5.4 km/h 223.5 ° SW 9.72 km/h 5.7 °C 77 % 1026.22 hPa
21.02.2024 00:06:50 6.06 km/h 231.7 ° SW 8.64 km/h 5.7 °C 76.5 % 1026.22 hPa
21.02.2024 00:02:08 8.99 km/h 237.1 ° W-SW 12.6 km/h 5.7 °C 77 % 1026.42 hPa
20.02.2024 23:57:25 4.37 km/h 238 ° W-SW 7.92 km/h 5.6 °C 76.5 % 1026.42 hPa
20.02.2024 23:52:43 5.15 km/h 220.1 ° SW 8.64 km/h 5.7 °C 76.5 % 1026.32 hPa
20.02.2024 23:48:00 4.03 km/h 235.7 ° SW 5.76 km/h 5.7 °C 76.5 % 1026.42 hPa
20.02.2024 23:43:17 6.17 km/h 223 ° SW 9.36 km/h 5.7 °C 76.5 % 1026.42 hPa
20.02.2024 23:38:35 5.77 km/h 249.1 ° W-SW 8.28 km/h 5.7 °C 76.5 % 1026.52 hPa
20.02.2024 23:33:52 10.47 km/h 247.2 ° W-SW 18 km/h 5.6 °C 76.5 % 1026.62 hPa
20.02.2024 23:29:10 3 km/h 221.8 ° SW 9.72 km/h 5.6 °C 76.5 % 1026.72 hPa
20.02.2024 23:24:27 8.19 km/h 248.1 ° W-SW 11.88 km/h 5.6 °C 76.5 % 1026.72 hPa
20.02.2024 23:19:45 2.12 km/h 241.3 ° W-SW 5.04 km/h 5.5 °C 76.5 % 1026.72 hPa
20.02.2024 23:15:03 6.66 km/h 238.2 ° W-SW 10.8 km/h 5.5 °C 76.5 % 1026.82 hPa
20.02.2024 23:10:20 5.68 km/h 234.4 ° SW 10.08 km/h 5.5 °C 76.5 % 1026.82 hPa
20.02.2024 23:05:37 6.05 km/h 239 ° W-SW 9.72 km/h 5.4 °C 77 % 1026.92 hPa
20.02.2024 23:00:55 6.25 km/h 246.2 ° W-SW 9 km/h 5.4 °C 77 % 1026.82 hPa
20.02.2024 22:56:12 5.64 km/h 232.9 ° SW 10.8 km/h 5.3 °C 77 % 1027.02 hPa
20.02.2024 22:51:30 4.67 km/h 241.3 ° W-SW 7.92 km/h 5.3 °C 77 % 1027.02 hPa
20.02.2024 22:46:47 1.86 km/h 178.7 ° S 4.68 km/h 5.2 °C 76.5 % 1027.02 hPa
20.02.2024 22:42:05 1.79 km/h 194.4 ° S-SW 3.24 km/h 5.2 °C 76.5 % 1027.12 hPa
20.02.2024 22:37:22 0.92 km/h 208.1 ° S-SW 2.88 km/h 5.2 °C 76 % 1027.12 hPa
20.02.2024 22:32:40 0.72 km/h 207.7 ° S-SW 2.88 km/h 5.3 °C 76.5 % 1027.12 hPa
20.02.2024 22:27:57 1.85 km/h 187.3 ° S 3.6 km/h 5.3 °C 76.5 % 1027.22 hPa
20.02.2024 22:23:15 0.75 km/h 166.5 ° S-SO 3.6 km/h 5.3 °C 76.5 % 1027.22 hPa
20.02.2024 22:18:32 1.51 km/h 163.7 ° S-SO 2.88 km/h 5.4 °C 76.5 % 1027.32 hPa
20.02.2024 22:13:50 2.63 km/h 180.3 ° S 3.6 km/h 5.4 °C 77 % 1027.32 hPa
20.02.2024 22:09:07 2.15 km/h 195.1 ° S-SW 3.6 km/h 5.5 °C 76.5 % 1027.22 hPa
20.02.2024 22:04:25 2.51 km/h 205 ° S-SW 3.96 km/h 5.5 °C 77 % 1027.22 hPa
20.02.2024 21:59:42 4.47 km/h 205.2 ° S-SW 7.2 km/h 5.6 °C 76.5 % 1027.22 hPa
20.02.2024 21:55:00 3.87 km/h 218.6 ° SW 5.4 km/h 5.6 °C 76.5 % 1027.22 hPa
20.02.2024 21:50:17 4.96 km/h 224.1 ° SW 6.48 km/h 5.6 °C 76.5 % 1027.22 hPa
20.02.2024 21:45:34 7.78 km/h 206.2 ° S-SW 9 km/h 5.6 °C 77 % 1027.32 hPa
20.02.2024 21:40:52 8.46 km/h 217.2 ° SW 12.6 km/h 5.6 °C 77 % 1027.32 hPa
20.02.2024 21:36:10 4.77 km/h 226 ° SW 6.48 km/h 5.6 °C 76.5 % 1027.32 hPa
20.02.2024 21:31:27 7.27 km/h 228.1 ° SW 9 km/h 5.5 °C 76.5 % 1027.52 hPa
20.02.2024 21:26:44 4.85 km/h 238 ° W-SW 8.64 km/h 5.5 °C 77 % 1027.42 hPa
20.02.2024 21:22:02 3.77 km/h 236.5 ° W-SW 5.4 km/h 5.5 °C 77 % 1027.42 hPa
20.02.2024 21:17:19 5.58 km/h 213.4 ° S-SW 7.56 km/h 5.5 °C 76.5 % 1027.52 hPa
20.02.2024 21:12:37 6.16 km/h 216.3 ° SW 8.64 km/h 5.6 °C 76.5 % 1027.42 hPa
20.02.2024 21:07:55 7.01 km/h 222 ° SW 8.28 km/h 5.6 °C 76 % 1027.42 hPa
20.02.2024 21:03:12 7.36 km/h 249.5 ° W-SW 10.44 km/h 5.6 °C 76.5 % 1027.32 hPa
20.02.2024 20:58:30 6.24 km/h 232.9 ° SW 8.64 km/h 5.7 °C 76.5 % 1027.42 hPa
20.02.2024 20:53:47 6.71 km/h 222 ° SW 9.36 km/h 5.7 °C 76.5 % 1027.32 hPa
20.02.2024 20:49:05 7.5 km/h 230.4 ° SW 11.16 km/h 5.7 °C 76.5 % 1027.32 hPa
20.02.2024 20:40:54 5.65 km/h 232.1 ° SW 7.2 km/h 5.8 °C 77 % 1027.32 hPa
20.02.2024 20:36:11 6.39 km/h 227.5 ° SW 9.72 km/h 5.7 °C 76.5 % 1027.42 hPa
20.02.2024 20:31:29 5.47 km/h 229.8 ° SW 7.92 km/h 5.7 °C 76.5 % 1027.42 hPa
20.02.2024 20:26:46 4.33 km/h 219.5 ° SW 6.12 km/h 5.8 °C 77 % 1027.32 hPa
20.02.2024 20:22:04 2.1 km/h 204.8 ° S-SW 6.84 km/h 5.9 °C 75.5 % 1027.42 hPa
20.02.2024 20:12:11 6.25 km/h 238.2 ° W-SW 8.28 km/h 6 °C 76.5 % 1027.52 hPa
20.02.2024 20:07:28 8.02 km/h 226 ° SW 11.52 km/h 6 °C 76.5 % 1027.52 hPa
20.02.2024 20:02:45 9.05 km/h 232.7 ° SW 11.16 km/h 6 °C 76.5 % 1027.52 hPa
20.02.2024 19:58:03 10.06 km/h 239.9 ° W-SW 11.88 km/h 6 °C 77 % 1027.52 hPa
20.02.2024 19:53:20 8.04 km/h 234.8 ° SW 10.08 km/h 6.1 °C 76.5 % 1027.52 hPa
20.02.2024 19:48:38 9.69 km/h 237.6 ° W-SW 12.96 km/h 6.1 °C 76 % 1027.62 hPa
20.02.2024 19:43:55 9.44 km/h 236.3 ° W-SW 12.96 km/h 6.1 °C 77 % 1027.62 hPa
20.02.2024 19:39:13 9.36 km/h 238.8 ° W-SW 12.24 km/h 6.1 °C 76.5 % 1027.62 hPa
20.02.2024 19:34:31 6.01 km/h 236.7 ° W-SW 8.28 km/h 6.1 °C 76.5 % 1027.62 hPa
20.02.2024 19:29:48 6.63 km/h 237.3 ° W-SW 8.64 km/h 6.1 °C 76.5 % 1027.72 hPa
20.02.2024 19:25:06 7.05 km/h 245.3 ° W-SW 12.24 km/h 6.1 °C 76.5 % 1027.72 hPa
20.02.2024 19:20:23 7.59 km/h 252.5 ° W-SW 10.8 km/h 6.1 °C 76.5 % 1027.72 hPa